sensor_id;sensor_type;location;lat;lon;timestamp;P1;durP1;ratioP1;P2;durP2;ratioP2
59986;SDS011;46181;51.498;5.392;2023-02-26T00:02:22;6.679999;;;2.948;;
59986;SDS011;46181;51.498;5.392;2023-02-26T00:06:52;7.267999;;;2.712;;
59986;SDS011;46181;51.498;5.392;2023-02-26T00:11:22;9.66;;;2.784;;
59986;SDS011;46181;51.498;5.392;2023-02-26T00:15:53;6.816;;;3.284;;
59986;SDS011;46181;51.498;5.392;2023-02-26T00:20:23;8.956;;;3.208;;
59986;SDS011;46181;51.498;5.392;2023-02-26T00:24:52;8.072001;;;3.54;;
59986;SDS011;46181;51.498;5.392;2023-02-26T00:29:23;8.788;;;4.043999;;
59986;SDS011;46181;51.498;5.392;2023-02-26T00:33:53;8.096001;;;3.547999;;
59986;SDS011;46181;51.498;5.392;2023-02-26T00:38:22;8.120001;;;3.488;;
59986;SDS011;46181;51.498;5.392;2023-02-26T00:42:53;9.676001;;;4.007999;;
59986;SDS011;46181;51.498;5.392;2023-02-26T00:47:24;9.144001;;;4.184;;
59986;SDS011;46181;51.498;5.392;2023-02-26T00:51:55;10.36;;;3.932;;
59986;SDS011;46181;51.498;5.392;2023-02-26T00:56:22;8.567999;;;3.888001;;
59986;SDS011;46181;51.498;5.392;2023-02-26T01:00:52;11.28;;;3.727999;;
59986;SDS011;46181;51.498;5.392;2023-02-26T01:05:23;8.876001;;;3.347999;;
59986;SDS011;46181;51.498;5.392;2023-02-26T01:09:53;9.268;;;3.576;;
59986;SDS011;46181;51.498;5.392;2023-02-26T01:14:23;7.048001;;;2.632;;
59986;SDS011;46181;51.498;5.392;2023-02-26T01:18:53;6.456;;;2.856;;
59986;SDS011;46181;51.498;5.392;2023-02-26T01:23:23;6.651999;;;2.676;;
59986;SDS011;46181;51.498;5.392;2023-02-26T01:27:53;6.992;;;2.768;;
59986;SDS011;46181;51.498;5.392;2023-02-26T01:32:24;6.932001;;;2.744;;
59986;SDS011;46181;51.498;5.392;2023-02-26T01:36:53;5.504;;;2.46;;
59986;SDS011;46181;51.498;5.392;2023-02-26T01:41:25;6.992;;;2.084;;
59986;SDS011;46181;51.498;5.392;2023-02-26T01:45:56;6.599999;;;1.716;;
59986;SDS011;46181;51.498;5.392;2023-02-26T01:50:23;4.607999;;;1.912;;
59986;SDS011;46181;51.498;5.392;2023-02-26T01:54:52;8.107999;;;2.1;;
59986;SDS011;46181;51.498;5.392;2023-02-26T01:59:22;6.844;;;2.324;;
59986;SDS011;46181;51.498;5.392;2023-02-26T02:03:52;3.960001;;;1.744;;
59986;SDS011;46181;51.498;5.392;2023-02-26T02:08:22;10.56;;;2.568;;
59986;SDS011;46181;51.498;5.392;2023-02-26T02:12:54;8.176;;;2.016;;
59986;SDS011;46181;51.498;5.392;2023-02-26T02:17:23;5.268;;;1.984;;
59986;SDS011;46181;51.498;5.392;2023-02-26T02:22:05;7.699999;;;1.888;;
59986;SDS011;46181;51.498;5.392;2023-02-26T02:26:31;6.536;;;2.028;;
59986;SDS011;46181;51.498;5.392;2023-02-26T02:30:58;5.559999;;;1.56;;
59986;SDS011;46181;51.498;5.392;2023-02-26T02:35:23;4.407999;;;1.456;;
59986;SDS011;46181;51.498;5.392;2023-02-26T02:39:54;5.755999;;;1.792;;
59986;SDS011;46181;51.498;5.392;2023-02-26T02:44:23;4.444;;;1.3;;
59986;SDS011;46181;51.498;5.392;2023-02-26T02:48:53;3.384;;;1.152;;
59986;SDS011;46181;51.498;5.392;2023-02-26T02:53:23;4.296;;;1.516;;
59986;SDS011;46181;51.498;5.392;2023-02-26T02:57:54;4.228;;;1.688;;
59986;SDS011;46181;51.498;5.392;2023-02-26T03:02:25;3.748001;;;1.56;;
59986;SDS011;46181;51.498;5.392;2023-02-26T03:06:52;3.276;;;1.564;;
59986;SDS011;46181;51.498;5.392;2023-02-26T03:11:22;3.420001;;;1.116;;
59986;SDS011;46181;51.498;5.392;2023-02-26T03:15:56;4.024001;;;1.204;;
59986;SDS011;46181;51.498;5.392;2023-02-26T03:20:24;6.672;;;1.648;;
59986;SDS011;46181;51.498;5.392;2023-02-26T03:24:54;6.971999;;;1.328;;
59986;SDS011;46181;51.498;5.392;2023-02-26T03:29:23;4.308;;;1.728;;
59986;SDS011;46181;51.498;5.392;2023-02-26T03:33:53;3.828001;;;1.48;;
59986;SDS011;46181;51.498;5.392;2023-02-26T03:38:26;4.148001;;;1.316;;
59986;SDS011;46181;51.498;5.392;2023-02-26T03:42:54;4.507999;;;1.384;;
59986;SDS011;46181;51.498;5.392;2023-02-26T03:47:22;5.668001;;;1.48;;
59986;SDS011;46181;51.498;5.392;2023-02-26T03:51:52;4.892;;;1.608;;
59986;SDS011;46181;51.498;5.392;2023-02-26T03:56:24;6.324001;;;1.88;;
59986;SDS011;46181;51.498;5.392;2023-02-26T04:00:53;4.108;;;1.62;;
59986;SDS011;46181;51.498;5.392;2023-02-26T04:05:24;5.528;;;1.5;;
59986;SDS011;46181;51.498;5.392;2023-02-26T04:09:52;4.556;;;1.204;;
59986;SDS011;46181;51.498;5.392;2023-02-26T04:14:22;3.536;;;1.368;;
59986;SDS011;46181;51.498;5.392;2023-02-26T04:18:52;4.104;;;1.624;;
59986;SDS011;46181;51.498;5.392;2023-02-26T04:23:22;2.188;;;1.172;;
59986;SDS011;46181;51.498;5.392;2023-02-26T04:27:52;5.256001;;;1.276;;
59986;SDS011;46181;51.498;5.392;2023-02-26T04:32:22;5.368001;;;1.644;;
59986;SDS011;46181;51.498;5.392;2023-02-26T04:36:52;4.952;;;1.72;;
59986;SDS011;46181;51.498;5.392;2023-02-26T04:41:22;3.704001;;;1.22;;
59986;SDS011;46181;51.498;5.392;2023-02-26T04:45:53;3.856;;;1.268;;
59986;SDS011;46181;51.498;5.392;2023-02-26T04:50:22;4.323999;;;1.28;;
59986;SDS011;46181;51.498;5.392;2023-02-26T04:54:52;2.696;;;1.136;;
59986;SDS011;46181;51.498;5.392;2023-02-26T04:59:22;5.968;;;1.716;;
59986;SDS011;46181;51.498;5.392;2023-02-26T05:03:52;2.764;;;0.904;;
59986;SDS011;46181;51.498;5.392;2023-02-26T05:08:23;3.36;;;1.12;;
59986;SDS011;46181;51.498;5.392;2023-02-26T05:12:52;2.988;;;1.256;;
59986;SDS011;46181;51.498;5.392;2023-02-26T05:17:22;3.252;;;1.196;;
59986;SDS011;46181;51.498;5.392;2023-02-26T05:21:52;4.248;;;1.004;;
59986;SDS011;46181;51.498;5.392;2023-02-26T05:26:23;4.676;;;1.356;;
59986;SDS011;46181;51.498;5.392;2023-02-26T05:30:54;3.64;;;1.148;;
59986;SDS011;46181;51.498;5.392;2023-02-26T05:35:22;3.812;;;1.3;;
59986;SDS011;46181;51.498;5.392;2023-02-26T05:39:52;3.879999;;;1.06;;
59986;SDS011;46181;51.498;5.392;2023-02-26T05:44:23;3.032;;;0.972;;
59986;SDS011;46181;51.498;5.392;2023-02-26T05:48:53;4.012001;;;0.88;;
59986;SDS011;46181;51.498;5.392;2023-02-26T05:53:23;4.34;;;0.98;;
59986;SDS011;46181;51.498;5.392;2023-02-26T05:57:53;3.472;;;0.84;;
59986;SDS011;46181;51.498;5.392;2023-02-26T06:02:23;3.76;;;1.204;;
59986;SDS011;46181;51.498;5.392;2023-02-26T06:06:53;4.716001;;;0.976;;
59986;SDS011;46181;51.498;5.392;2023-02-26T06:11:23;1.84;;;1.004;;
59986;SDS011;46181;51.498;5.392;2023-02-26T06:15:53;5.079999;;;1.288;;
59986;SDS011;46181;51.498;5.392;2023-02-26T06:20:23;7.22;;;1.04;;
59986;SDS011;46181;51.498;5.392;2023-02-26T06:24:53;4.82;;;1.444;;
59986;SDS011;46181;51.498;5.392;2023-02-26T06:29:23;3.04;;;0.952;;
59986;SDS011;46181;51.498;5.392;2023-02-26T06:33:53;3.612;;;0.896;;
59986;SDS011;46181;51.498;5.392;2023-02-26T06:38:23;3.196;;;1.084;;
59986;SDS011;46181;51.498;5.392;2023-02-26T06:42:53;7.120001;;;1.18;;
59986;SDS011;46181;51.498;5.392;2023-02-26T06:47:23;3.608;;;0.996;;
59986;SDS011;46181;51.498;5.392;2023-02-26T06:51:53;4.016;;;1.112;;
59986;SDS011;46181;51.498;5.392;2023-02-26T06:56:23;3.960001;;;0.896;;
59986;SDS011;46181;51.498;5.392;2023-02-26T07:00:53;3.932001;;;1.512;;
59986;SDS011;46181;51.498;5.392;2023-02-26T07:05:23;3.304;;;0.88;;
59986;SDS011;46181;51.498;5.392;2023-02-26T07:09:53;2.132;;;0.904;;
59986;SDS011;46181;51.498;5.392;2023-02-26T07:14:23;3.092;;;1.248;;
59986;SDS011;46181;51.498;5.392;2023-02-26T07:18:53;5.496;;;0.88;;
59986;SDS011;46181;51.498;5.392;2023-02-26T07:23:23;2.412;;;0.612;;
59986;SDS011;46181;51.498;5.392;2023-02-26T07:27:53;4.435999;;;0.988;;
59986;SDS011;46181;51.498;5.392;2023-02-26T07:32:23;5.16;;;1.128;;
59986;SDS011;46181;51.498;5.392;2023-02-26T07:36:53;3.216001;;;1.156;;
59986;SDS011;46181;51.498;5.392;2023-02-26T07:41:23;5.424;;;1.072;;
59986;SDS011;46181;51.498;5.392;2023-02-26T07:45:53;1.92;;;0.712;;
59986;SDS011;46181;51.498;5.392;2023-02-26T07:50:23;2.668;;;0.616;;
59986;SDS011;46181;51.498;5.392;2023-02-26T07:54:53;4.4;;;0.996;;
59986;SDS011;46181;51.498;5.392;2023-02-26T07:59:23;4.307999;;;1.156;;
59986;SDS011;46181;51.498;5.392;2023-02-26T08:03:53;3.296;;;0.82;;
59986;SDS011;46181;51.498;5.392;2023-02-26T08:08:23;3.972;;;0.88;;
59986;SDS011;46181;51.498;5.392;2023-02-26T08:12:53;3.680001;;;0.932;;
59986;SDS011;46181;51.498;5.392;2023-02-26T08:17:23;3.052;;;1.068;;
59986;SDS011;46181;51.498;5.392;2023-02-26T08:21:53;4.144;;;1.108;;
59986;SDS011;46181;51.498;5.392;2023-02-26T08:26:23;3.12;;;1.04;;
59986;SDS011;46181;51.498;5.392;2023-02-26T08:30:55;3.844;;;0.9;;
59986;SDS011;46181;51.498;5.392;2023-02-26T08:35:23;5.351999;;;0.904;;
59986;SDS011;46181;51.498;5.392;2023-02-26T08:39:53;4.308;;;0.976;;
59986;SDS011;46181;51.498;5.392;2023-02-26T08:44:23;5.716001;;;1.208;;
59986;SDS011;46181;51.498;5.392;2023-02-26T08:48:53;3.896;;;1.3;;
59986;SDS011;46181;51.498;5.392;2023-02-26T08:53:23;4.084;;;0.98;;
59986;SDS011;46181;51.498;5.392;2023-02-26T08:57:53;3.356;;;0.78;;
59986;SDS011;46181;51.498;5.392;2023-02-26T09:02:23;4.228;;;0.916;;
59986;SDS011;46181;51.498;5.392;2023-02-26T09:06:53;2.468;;;0.88;;
59986;SDS011;46181;51.498;5.392;2023-02-26T09:11:23;1.704;;;0.82;;
59986;SDS011;46181;51.498;5.392;2023-02-26T09:15:53;4.176;;;1.044;;
59986;SDS011;46181;51.498;5.392;2023-02-26T09:20:23;1.344;;;0.58;;
59986;SDS011;46181;51.498;5.392;2023-02-26T09:24:53;3.016;;;0.768;;
59986;SDS011;46181;51.498;5.392;2023-02-26T09:29:23;3.008;;;0.808;;
59986;SDS011;46181;51.498;5.392;2023-02-26T09:33:53;5.224;;;1.128;;
59986;SDS011;46181;51.498;5.392;2023-02-26T09:38:23;3.912;;;1.016;;
59986;SDS011;46181;51.498;5.392;2023-02-26T09:42:56;3.648;;;1.968;;
59986;SDS011;46181;51.498;5.392;2023-02-26T09:47:23;3.764;;;1.136;;
59986;SDS011;46181;51.498;5.392;2023-02-26T09:51:54;3.108;;;1.012;;
59986;SDS011;46181;51.498;5.392;2023-02-26T09:56:23;4.524;;;1.712;;
59986;SDS011;46181;51.498;5.392;2023-02-26T10:00:55;5.480001;;;1.532;;
59986;SDS011;46181;51.498;5.392;2023-02-26T10:05:25;5.751999;;;2.116;;
59986;SDS011;46181;51.498;5.392;2023-02-26T10:09:56;4.179999;;;1.044;;
59986;SDS011;46181;51.498;5.392;2023-02-26T10:14:23;5.056;;;1.432;;
59986;SDS011;46181;51.498;5.392;2023-02-26T10:18:54;5.915998;;;2.04;;
59986;SDS011;46181;51.498;5.392;2023-02-26T10:23:24;2.62;;;0.88;;
59986;SDS011;46181;51.498;5.392;2023-02-26T10:27:59;4.856;;;1.796;;
59986;SDS011;46181;51.498;5.392;2023-02-26T10:32:25;4.488;;;1.532;;
59986;SDS011;46181;51.498;5.392;2023-02-26T10:36:56;6.492;;;2.576001;;
59986;SDS011;46181;51.498;5.392;2023-02-26T10:41:24;5.083999;;;1.712;;
59986;SDS011;46181;51.498;5.392;2023-02-26T10:45:57;2.72;;;0.808;;
59986;SDS011;46181;51.498;5.392;2023-02-26T10:50:23;2.42;;;1.256;;
59986;SDS011;46181;51.498;5.392;2023-02-26T10:54:59;3.836;;;1.04;;
59986;SDS011;46181;51.498;5.392;2023-02-26T10:59:23;2.256;;;0.9;;
59986;SDS011;46181;51.498;5.392;2023-02-26T11:03:53;2.848;;;0.644;;
59986;SDS011;46181;51.498;5.392;2023-02-26T11:08:24;2.48;;;0.904;;
59986;SDS011;46181;51.498;5.392;2023-02-26T11:12:53;2.888;;;0.88;;
59986;SDS011;46181;51.498;5.392;2023-02-26T11:17:23;3.168;;;0.924;;
59986;SDS011;46181;51.498;5.392;2023-02-26T11:21:53;7.688001;;;2.176;;
59986;SDS011;46181;51.498;5.392;2023-02-26T11:26:25;3.22;;;1.584;;
59986;SDS011;46181;51.498;5.392;2023-02-26T11:30:53;4.296;;;1.244;;
59986;SDS011;46181;51.498;5.392;2023-02-26T11:35:23;2.732;;;0.764;;
59986;SDS011;46181;51.498;5.392;2023-02-26T11:39:54;5.42;;;2.512;;
59986;SDS011;46181;51.498;5.392;2023-02-26T11:44:23;2.028;;;0.548;;
59986;SDS011;46181;51.498;5.392;2023-02-26T11:48:53;5.904001;;;1.692;;
59986;SDS011;46181;51.498;5.392;2023-02-26T11:53:23;3.547999;;;1.268;;
59986;SDS011;46181;51.498;5.392;2023-02-26T11:57:53;7.763999;;;3.912;;
59986;SDS011;46181;51.498;5.392;2023-02-26T12:02:24;2.232;;;0.968;;
59986;SDS011;46181;51.498;5.392;2023-02-26T12:06:54;3.463999;;;0.868;;
59986;SDS011;46181;51.498;5.392;2023-02-26T12:15:54;3.032001;;;1.356;;
59986;SDS011;46181;51.498;5.392;2023-02-26T12:20:23;4.308;;;1.624;;
59986;SDS011;46181;51.498;5.392;2023-02-26T12:24:57;6.508;;;2.592;;
59986;SDS011;46181;51.498;5.392;2023-02-26T12:29:35;2.296;;;1.044;;
59986;SDS011;46181;51.498;5.392;2023-02-26T12:33:56;3.684;;;1.812;;
59986;SDS011;46181;51.498;5.392;2023-02-26T12:38:24;4.784;;;2.312;;
59986;SDS011;46181;51.498;5.392;2023-02-26T12:42:55;2.664;;;0.964;;
59986;SDS011;46181;51.498;5.392;2023-02-26T12:47:30;2.296;;;0.516;;
59986;SDS011;46181;51.498;5.392;2023-02-26T12:51:57;2.984;;;1.164;;
59986;SDS011;46181;51.498;5.392;2023-02-26T12:56:33;5.132;;;2.323999;;
59986;SDS011;46181;51.498;5.392;2023-02-26T13:00:56;7.447999;;;3.052;;
59986;SDS011;46181;51.498;5.392;2023-02-26T13:05:27;3.236;;;0.972;;
59986;SDS011;46181;51.498;5.392;2023-02-26T13:09:56;6.175999;;;1.688;;
59986;SDS011;46181;51.498;5.392;2023-02-26T13:14:26;1.932;;;0.692;;
59986;SDS011;46181;51.498;5.392;2023-02-26T13:18:56;3.236;;;1.068;;
59986;SDS011;46181;51.498;5.392;2023-02-26T13:23:23;6.932;;;2.6;;
59986;SDS011;46181;51.498;5.392;2023-02-26T13:27:53;9.579999;;;4.236;;
59986;SDS011;46181;51.498;5.392;2023-02-26T13:32:23;7.303999;;;3;;
59986;SDS011;46181;51.498;5.392;2023-02-26T13:36:53;6.144;;;3.959999;;
59986;SDS011;46181;51.498;5.392;2023-02-26T13:41:24;8.740001;;;2.988;;
59986;SDS011;46181;51.498;5.392;2023-02-26T13:45:55;3.828;;;0.856;;
59986;SDS011;46181;51.498;5.392;2023-02-26T13:50:26;3.228;;;1.652;;
59986;SDS011;46181;51.498;5.392;2023-02-26T13:54:53;5.304;;;1.992;;
59986;SDS011;46181;51.498;5.392;2023-02-26T13:59:34;4.472;;;1.744;;
59986;SDS011;46181;51.498;5.392;2023-02-26T14:04:05;4.772;;;2.08;;
59986;SDS011;46181;51.498;5.392;2023-02-26T14:08:37;6.123999;;;2.856;;
59986;SDS011;46181;51.498;5.392;2023-02-26T14:13:01;5.256001;;;2.212;;
59986;SDS011;46181;51.498;5.392;2023-02-26T14:17:35;4.896;;;2.044;;
59986;SDS011;46181;51.498;5.392;2023-02-26T14:21:54;4.955999;;;1.512;;
59986;SDS011;46181;51.498;5.392;2023-02-26T14:26:23;3.448;;;0.86;;
59986;SDS011;46181;51.498;5.392;2023-02-26T14:31:03;2.999999;;;0.788;;
59986;SDS011;46181;51.498;5.392;2023-02-26T14:35:23;2.460001;;;0.904;;
59986;SDS011;46181;51.498;5.392;2023-02-26T14:39:54;2.172;;;0.668;;
59986;SDS011;46181;51.498;5.392;2023-02-26T14:44:24;2.54;;;0.864;;
59986;SDS011;46181;51.498;5.392;2023-02-26T14:48:53;1.776;;;0.892;;
59986;SDS011;46181;51.498;5.392;2023-02-26T14:57:56;2.056;;;0.648;;
59986;SDS011;46181;51.498;5.392;2023-02-26T15:02:25;2.34;;;0.736;;
59986;SDS011;46181;51.498;5.392;2023-02-26T15:06:57;1.96;;;0.6;;
59986;SDS011;46181;51.498;5.392;2023-02-26T15:11:31;2.268;;;0.624;;
59986;SDS011;46181;51.498;5.392;2023-02-26T15:15:55;2.444;;;0.732;;
59986;SDS011;46181;51.498;5.392;2023-02-26T15:20:26;2.048;;;0.888;;
59986;SDS011;46181;51.498;5.392;2023-02-26T15:24:53;1.676;;;0.72;;
59986;SDS011;46181;51.498;5.392;2023-02-26T15:29:24;2.004;;;0.772;;
59986;SDS011;46181;51.498;5.392;2023-02-26T15:33:54;2.544;;;0.904;;
59986;SDS011;46181;51.498;5.392;2023-02-26T15:38:23;3.408;;;0.916;;
59986;SDS011;46181;51.498;5.392;2023-02-26T15:42:54;2.46;;;0.612;;
59986;SDS011;46181;51.498;5.392;2023-02-26T15:47:23;2.508;;;0.796;;
59986;SDS011;46181;51.498;5.392;2023-02-26T15:51:53;1.86;;;0.596;;
59986;SDS011;46181;51.498;5.392;2023-02-26T15:56:24;1.752;;;0.876;;
59986;SDS011;46181;51.498;5.392;2023-02-26T16:00:58;2.184;;;0.752;;
59986;SDS011;46181;51.498;5.392;2023-02-26T16:05:23;1.128;;;0.66;;
59986;SDS011;46181;51.498;5.392;2023-02-26T16:09:53;2.624;;;0.804;;
59986;SDS011;46181;51.498;5.392;2023-02-26T16:14:24;2.72;;;0.892;;
59986;SDS011;46181;51.498;5.392;2023-02-26T16:18:54;1.756;;;0.668;;
59986;SDS011;46181;51.498;5.392;2023-02-26T16:23:23;2.296;;;0.908;;
59986;SDS011;46181;51.498;5.392;2023-02-26T16:27:55;2.692;;;0.692;;
59986;SDS011;46181;51.498;5.392;2023-02-26T16:32:23;3.043999;;;0.904;;
59986;SDS011;46181;51.498;5.392;2023-02-26T16:36:53;2.476;;;0.904;;
59986;SDS011;46181;51.498;5.392;2023-02-26T16:41:25;4.039999;;;1.272;;
59986;SDS011;46181;51.498;5.392;2023-02-26T16:45:53;3.004;;;1.184;;
59986;SDS011;46181;51.498;5.392;2023-02-26T16:50:24;3.332001;;;1.008;;
59986;SDS011;46181;51.498;5.392;2023-02-26T16:54:56;2.184;;;0.8;;
59986;SDS011;46181;51.498;5.392;2023-02-26T16:59:23;2.972;;;0.7;;
59986;SDS011;46181;51.498;5.392;2023-02-26T17:03:59;2.348;;;0.824;;
59986;SDS011;46181;51.498;5.392;2023-02-26T17:08:25;3.744;;;1.284;;
59986;SDS011;46181;51.498;5.392;2023-02-26T17:12:53;3.5;;;1.26;;
59986;SDS011;46181;51.498;5.392;2023-02-26T17:17:23;4.144001;;;1.224;;
59986;SDS011;46181;51.498;5.392;2023-02-26T17:21:53;3.064;;;1.276;;
59986;SDS011;46181;51.498;5.392;2023-02-26T17:26:23;2.92;;;1.216;;
59986;SDS011;46181;51.498;5.392;2023-02-26T17:30:53;4.216;;;1.224;;
59986;SDS011;46181;51.498;5.392;2023-02-26T17:35:23;2.472;;;0.788;;
59986;SDS011;46181;51.498;5.392;2023-02-26T17:39:53;2.772;;;1.26;;
59986;SDS011;46181;51.498;5.392;2023-02-26T17:44:23;4.128;;;1.192;;
59986;SDS011;46181;51.498;5.392;2023-02-26T17:48:53;3.556;;;1.128;;
59986;SDS011;46181;51.498;5.392;2023-02-26T17:53:23;3.076;;;1.436;;
59986;SDS011;46181;51.498;5.392;2023-02-26T17:57:53;3.663999;;;1.5;;
59986;SDS011;46181;51.498;5.392;2023-02-26T18:02:23;3.392;;;1.504;;
59986;SDS011;46181;51.498;5.392;2023-02-26T18:06:53;3.911999;;;1.564;;
59986;SDS011;46181;51.498;5.392;2023-02-26T18:11:23;4.112;;;1.42;;
59986;SDS011;46181;51.498;5.392;2023-02-26T18:15:53;3.588001;;;1.44;;
59986;SDS011;46181;51.498;5.392;2023-02-26T18:20:23;5.243999;;;1.716;;
59986;SDS011;46181;51.498;5.392;2023-02-26T18:24:53;4.275999;;;1.648;;
59986;SDS011;46181;51.498;5.392;2023-02-26T18:29:23;4.307999;;;1.9;;
59986;SDS011;46181;51.498;5.392;2023-02-26T18:33:53;3.656;;;1.404;;
59986;SDS011;46181;51.498;5.392;2023-02-26T18:38:24;6.860001;;;2.808;;
59986;SDS011;46181;51.498;5.392;2023-02-26T18:42:53;15.224;;;5.728001;;
59986;SDS011;46181;51.498;5.392;2023-02-26T18:47:23;8.708001;;;3.568;;
59986;SDS011;46181;51.498;5.392;2023-02-26T18:51:53;8.271999;;;3.22;;
59986;SDS011;46181;51.498;5.392;2023-02-26T18:56:23;6.4;;;2.932;;
59986;SDS011;46181;51.498;5.392;2023-02-26T19:00:53;6.112001;;;2.588;;
59986;SDS011;46181;51.498;5.392;2023-02-26T19:05:23;3.724;;;1.772;;
59986;SDS011;46181;51.498;5.392;2023-02-26T19:09:53;3.232;;;1.328;;
59986;SDS011;46181;51.498;5.392;2023-02-26T19:14:23;5.223999;;;1.324;;
59986;SDS011;46181;51.498;5.392;2023-02-26T19:18:53;4.26;;;1.52;;
59986;SDS011;46181;51.498;5.392;2023-02-26T19:23:23;4.732;;;1.812;;
59986;SDS011;46181;51.498;5.392;2023-02-26T19:27:53;5.192001;;;1.884;;
59986;SDS011;46181;51.498;5.392;2023-02-26T19:32:23;3.868001;;;1.62;;
59986;SDS011;46181;51.498;5.392;2023-02-26T19:36:53;2.96;;;1.556;;
59986;SDS011;46181;51.498;5.392;2023-02-26T19:41:23;6.392;;;1.864;;
59986;SDS011;46181;51.498;5.392;2023-02-26T19:45:53;4.259999;;;1.528;;
59986;SDS011;46181;51.498;5.392;2023-02-26T19:50:23;5.184;;;1.504;;
59986;SDS011;46181;51.498;5.392;2023-02-26T19:54:53;4.424;;;1.212;;
59986;SDS011;46181;51.498;5.392;2023-02-26T19:59:23;4.987999;;;1.32;;
59986;SDS011;46181;51.498;5.392;2023-02-26T20:03:53;4.192001;;;1.1;;
59986;SDS011;46181;51.498;5.392;2023-02-26T20:08:24;4.516;;;1.248;;
59986;SDS011;46181;51.498;5.392;2023-02-26T20:12:53;4.084;;;1.636;;
59986;SDS011;46181;51.498;5.392;2023-02-26T20:17:23;3.436;;;1.084;;
59986;SDS011;46181;51.498;5.392;2023-02-26T20:21:53;7.008;;;1.496;;
59986;SDS011;46181;51.498;5.392;2023-02-26T20:26:23;5.592;;;1.328;;
59986;SDS011;46181;51.498;5.392;2023-02-26T20:30:53;4.596;;;1.492;;
59986;SDS011;46181;51.498;5.392;2023-02-26T20:35:23;4.416;;;1.248;;
59986;SDS011;46181;51.498;5.392;2023-02-26T20:39:53;7.352;;;1.808;;
59986;SDS011;46181;51.498;5.392;2023-02-26T20:44:23;4.319999;;;1.264;;
59986;SDS011;46181;51.498;5.392;2023-02-26T20:48:53;4.300001;;;1.296;;
59986;SDS011;46181;51.498;5.392;2023-02-26T20:53:23;2.736;;;1.196;;
59986;SDS011;46181;51.498;5.392;2023-02-26T20:57:53;3.116;;;1.228;;
59986;SDS011;46181;51.498;5.392;2023-02-26T21:02:23;4.552;;;1.204;;
59986;SDS011;46181;51.498;5.392;2023-02-26T21:06:53;3.775999;;;1.22;;
59986;SDS011;46181;51.498;5.392;2023-02-26T21:11:23;6.759999;;;1.192;;
59986;SDS011;46181;51.498;5.392;2023-02-26T21:15:53;4.796;;;1.156;;
59986;SDS011;46181;51.498;5.392;2023-02-26T21:20:23;3.208;;;1.544;;
59986;SDS011;46181;51.498;5.392;2023-02-26T21:24:53;3.576;;;1.372;;
59986;SDS011;46181;51.498;5.392;2023-02-26T21:29:23;5.928;;;1.44;;
59986;SDS011;46181;51.498;5.392;2023-02-26T21:33:53;3.875999;;;1.544;;
59986;SDS011;46181;51.498;5.392;2023-02-26T21:38:23;4.8;;;1.672;;
59986;SDS011;46181;51.498;5.392;2023-02-26T21:42:53;8.112;;;1.404;;
59986;SDS011;46181;51.498;5.392;2023-02-26T21:47:23;5.564;;;1.688;;
59986;SDS011;46181;51.498;5.392;2023-02-26T21:51:53;6.419998;;;1.648;;
59986;SDS011;46181;51.498;5.392;2023-02-26T21:56:23;3.984;;;1.632;;
59986;SDS011;46181;51.498;5.392;2023-02-26T22:00:53;5.124001;;;1.66;;
59986;SDS011;46181;51.498;5.392;2023-02-26T22:05:23;5.731999;;;1.684;;
59986;SDS011;46181;51.498;5.392;2023-02-26T22:09:53;4.932;;;2.088;;
59986;SDS011;46181;51.498;5.392;2023-02-26T22:14:23;5.800001;;;2.172;;
59986;SDS011;46181;51.498;5.392;2023-02-26T22:18:53;5.988;;;1.456;;
59986;SDS011;46181;51.498;5.392;2023-02-26T22:23:23;6.576;;;1.740001;;
59986;SDS011;46181;51.498;5.392;2023-02-26T22:27:53;6.792001;;;2.096;;
59986;SDS011;46181;51.498;5.392;2023-02-26T22:32:23;3.692;;;1.804;;
59986;SDS011;46181;51.498;5.392;2023-02-26T22:36:53;3.428;;;1.74;;
59986;SDS011;46181;51.498;5.392;2023-02-26T22:41:23;8.14;;;2.436001;;
59986;SDS011;46181;51.498;5.392;2023-02-26T22:45:53;3.256;;;1.652;;
59986;SDS011;46181;51.498;5.392;2023-02-26T22:50:23;9.092001;;;1.736;;
59986;SDS011;46181;51.498;5.392;2023-02-26T22:54:53;4.592;;;1.252;;
59986;SDS011;46181;51.498;5.392;2023-02-26T22:59:23;5.915999;;;1.58;;
59986;SDS011;46181;51.498;5.392;2023-02-26T23:03:53;6.655999;;;1.468;;
59986;SDS011;46181;51.498;5.392;2023-02-26T23:08:23;3.635999;;;1.428;;
59986;SDS011;46181;51.498;5.392;2023-02-26T23:12:53;3.776;;;1.424;;
59986;SDS011;46181;51.498;5.392;2023-02-26T23:17:23;3.528001;;;1.528;;
59986;SDS011;46181;51.498;5.392;2023-02-26T23:21:53;3.3;;;1.248;;
59986;SDS011;46181;51.498;5.392;2023-02-26T23:26:23;2.888;;;1.468;;
59986;SDS011;46181;51.498;5.392;2023-02-26T23:30:53;5.48;;;1.572;;
59986;SDS011;46181;51.498;5.392;2023-02-26T23:35:23;4.164;;;1.5;;
59986;SDS011;46181;51.498;5.392;2023-02-26T23:39:53;4.432;;;1.26;;
59986;SDS011;46181;51.498;5.392;2023-02-26T23:44:23;3.7;;;1.404;;
59986;SDS011;46181;51.498;5.392;2023-02-26T23:48:53;6.604;;;1.76;;
59986;SDS011;46181;51.498;5.392;2023-02-26T23:53:23;4.227999;;;1.644;;
59986;SDS011;46181;51.498;5.392;2023-02-26T23:57:53;5.48;;;1.724;;
